createdAt,value
2018-01-18T00:01:25.984Z,999.24
2018-01-18T00:02:25.947Z,999.20
2018-01-18T00:04:18.770Z,999.26
2018-01-18T00:05:18.738Z,999.23
2018-01-18T00:07:11.586Z,999.11
2018-01-18T00:08:11.544Z,999.14
2018-01-18T00:10:04.368Z,999.08
2018-01-18T00:11:04.342Z,999.12
2018-01-18T00:12:57.176Z,999.07
2018-01-18T00:13:57.133Z,999.04
2018-01-18T00:15:49.954Z,999.12
2018-01-18T00:16:49.924Z,999.01
2018-01-18T00:18:42.766Z,999.08
2018-01-18T00:19:42.722Z,999.20
2018-01-18T00:21:35.544Z,999.03
2018-01-18T00:22:35.527Z,999.05
2018-01-18T00:24:28.363Z,999.11
2018-01-18T00:25:28.318Z,998.98
2018-01-18T00:27:21.136Z,999.10
2018-01-18T00:28:21.108Z,999.06
2018-01-18T00:30:13.949Z,998.88
2018-01-18T00:31:13.903Z,998.91
2018-01-18T00:33:06.729Z,998.92
2018-01-18T00:34:06.702Z,998.99
2018-01-18T00:35:59.538Z,998.82
2018-01-18T00:36:59.491Z,999.31
2018-01-18T00:38:52.811Z,998.96
2018-01-18T00:39:52.781Z,998.91
2018-01-18T00:41:45.627Z,998.98
2018-01-18T00:42:45.576Z,998.98
2018-01-18T00:44:38.401Z,999.12
2018-01-18T00:45:38.373Z,998.97
2018-01-18T00:47:31.209Z,998.90
2018-01-18T00:48:31.162Z,998.94
2018-01-18T00:50:23.993Z,999.07
2018-01-18T00:51:23.964Z,998.78
2018-01-18T00:53:16.819Z,998.97
2018-01-18T00:54:16.757Z,998.70
2018-01-18T00:56:09.577Z,998.82
2018-01-18T00:57:09.552Z,998.74
2018-01-18T00:59:02.383Z,998.81
2018-01-18T01:00:02.344Z,998.69
2018-01-18T01:01:55.166Z,998.81
2018-01-18T01:02:55.135Z,998.80
2018-01-18T01:04:47.983Z,998.88
2018-01-18T01:05:47.933Z,998.91
2018-01-18T01:07:40.758Z,998.75
2018-01-18T01:08:40.745Z,998.90
2018-01-18T01:10:33.572Z,998.99
2018-01-18T01:11:33.526Z,998.67
2018-01-18T01:13:26.349Z,998.52
2018-01-18T01:14:26.322Z,998.74
2018-01-18T01:16:19.162Z,998.61
2018-01-18T01:17:19.113Z,998.59
2018-01-18T01:19:11.942Z,998.58
2018-01-18T01:20:11.918Z,998.67
2018-01-18T01:22:04.759Z,998.65
2018-01-18T01:23:04.711Z,998.68
2018-01-18T01:24:57.538Z,998.43
2018-01-18T01:25:57.510Z,998.43
2018-01-18T01:27:50.350Z,998.38
2018-01-18T01:28:50.304Z,998.32
2018-01-18T01:30:43.133Z,998.28
2018-01-18T01:31:43.103Z,998.37
2018-01-18T01:33:36.438Z,998.21
2018-01-18T01:34:36.397Z,998.26
2018-01-18T01:36:29.216Z,998.10
2018-01-18T01:37:29.188Z,997.96
2018-01-18T01:39:22.029Z,998.01
2018-01-18T01:40:21.988Z,997.98
2018-01-18T01:42:14.814Z,997.93
2018-01-18T01:43:14.782Z,997.97
2018-01-18T01:45:07.631Z,997.85
2018-01-18T01:46:07.589Z,998.06
2018-01-18T01:48:00.417Z,997.76
2018-01-18T01:49:00.387Z,997.79
2018-01-18T01:50:53.233Z,997.78
2018-01-18T01:51:53.189Z,997.93
2018-01-18T01:53:46.020Z,997.82
2018-01-18T01:54:45.988Z,997.89
2018-01-18T01:56:38.838Z,997.94
2018-01-18T01:57:38.780Z,998.11
2018-01-18T01:59:31.606Z,998.07
2018-01-18T02:00:31.575Z,997.94
2018-01-18T02:02:24.411Z,998.00
2018-01-18T02:03:24.374Z,998.05
2018-01-18T02:05:17.193Z,997.79
2018-01-18T02:06:17.165Z,997.80
2018-01-18T02:08:10.005Z,997.74
2018-01-18T02:09:09.960Z,997.77
2018-01-18T02:11:02.784Z,997.59
2018-01-18T02:12:02.762Z,997.73
2018-01-18T02:13:55.607Z,997.81
2018-01-18T02:14:55.552Z,997.57
2018-01-18T02:16:48.372Z,997.75
2018-01-18T02:17:48.346Z,997.67
2018-01-18T02:19:41.185Z,997.44
2018-01-18T02:20:41.140Z,997.42
2018-01-18T02:22:33.965Z,997.22
2018-01-18T02:23:33.938Z,997.26
2018-01-18T02:25:26.790Z,997.16
2018-01-18T02:26:26.741Z,997.13
2018-01-18T02:28:19.559Z,997.09
2018-01-18T02:29:19.536Z,997.01
2018-01-18T02:31:12.370Z,996.86
2018-01-18T02:32:12.328Z,997.05
2018-01-18T02:34:05.146Z,996.84
2018-01-18T02:35:05.124Z,996.92
2018-01-18T02:36:57.961Z,996.75
2018-01-18T02:37:57.917Z,996.81
2018-01-18T02:39:50.738Z,996.84
2018-01-18T02:40:50.716Z,996.73
2018-01-18T02:42:43.561Z,996.74
2018-01-18T02:43:43.514Z,996.64
2018-01-18T02:45:36.333Z,996.66
2018-01-18T02:46:36.302Z,996.74
2018-01-18T02:48:29.150Z,996.63
2018-01-18T02:49:29.102Z,996.49
2018-01-18T02:51:22.431Z,996.49
2018-01-18T02:52:22.408Z,996.52
2018-01-18T02:54:15.249Z,996.60
2018-01-18T02:55:15.202Z,996.55
2018-01-18T02:57:08.031Z,996.49
2018-01-18T02:58:07.999Z,996.55
2018-01-18T03:00:00.843Z,996.51
2018-01-18T03:01:00.801Z,996.49
2018-01-18T03:02:53.624Z,996.52
2018-01-18T03:03:53.593Z,996.56
2018-01-18T03:05:46.429Z,996.53
2018-01-18T03:06:46.391Z,996.92
2018-01-18T03:08:39.219Z,997.11
2018-01-18T03:09:39.190Z,996.51
2018-01-18T03:11:33.059Z,996.25
2018-01-18T03:12:33.000Z,996.39
2018-01-18T03:14:25.820Z,996.60
2018-01-18T03:15:25.791Z,996.22
2018-01-18T03:17:18.636Z,996.07
2018-01-18T03:18:18.583Z,996.33
2018-01-18T03:20:11.416Z,996.16
2018-01-18T03:21:11.381Z,995.96
2018-01-18T03:23:04.216Z,996.05
2018-01-18T03:24:04.176Z,995.95
2018-01-18T03:25:56.997Z,995.95
2018-01-18T03:26:56.971Z,995.96
2018-01-18T03:28:49.812Z,995.78
2018-01-18T03:29:49.772Z,995.85
2018-01-18T03:31:42.595Z,995.66
2018-01-18T03:32:42.564Z,995.70
2018-01-18T03:34:35.407Z,995.68
2018-01-18T03:35:35.362Z,995.75
2018-01-18T03:37:28.184Z,995.55
2018-01-18T03:38:28.162Z,995.74
2018-01-18T03:40:21.002Z,995.46
2018-01-18T03:41:20.958Z,995.58
2018-01-18T03:43:13.784Z,995.44
2018-01-18T03:44:13.753Z,995.40
2018-01-18T03:46:07.084Z,995.37
2018-01-18T03:47:07.047Z,995.38
2018-01-18T03:48:59.870Z,995.28
2018-01-18T03:49:59.849Z,995.30
2018-01-18T03:51:52.691Z,995.22
2018-01-18T03:52:52.637Z,995.14
2018-01-18T03:54:45.513Z,995.76
2018-01-18T03:55:45.437Z,995.38
2018-01-18T03:57:38.278Z,995.13
2018-01-18T03:58:38.238Z,995.08
2018-01-18T04:00:31.091Z,994.98
2018-01-18T04:01:31.066Z,994.95
2018-01-18T04:03:23.906Z,994.91
2018-01-18T04:04:23.856Z,995.09
2018-01-18T04:06:16.684Z,994.95
2018-01-18T04:07:16.669Z,994.81
2018-01-18T04:09:09.498Z,994.72
2018-01-18T04:10:09.452Z,994.77
2018-01-18T04:12:02.279Z,994.91
2018-01-18T04:13:02.251Z,994.66
2018-01-18T04:14:55.095Z,994.82
2018-01-18T04:15:55.048Z,994.74
2018-01-18T04:17:47.880Z,994.59
2018-01-18T04:18:47.852Z,994.49
2018-01-18T04:20:40.695Z,994.46
2018-01-18T04:21:40.654Z,994.67
2018-01-18T04:23:33.478Z,994.48
2018-01-18T04:24:33.448Z,994.35
2018-01-18T04:26:26.290Z,994.50
2018-01-18T04:27:26.248Z,994.43
2018-01-18T04:29:19.074Z,994.33
2018-01-18T04:30:19.049Z,994.13
2018-01-18T04:32:11.888Z,993.98
2018-01-18T04:33:11.846Z,994.04
2018-01-18T04:35:04.682Z,994.15
2018-01-18T04:36:04.659Z,993.88
2018-01-18T04:37:57.496Z,993.89
2018-01-18T04:38:57.459Z,993.69
2018-01-18T04:40:50.280Z,993.74
2018-01-18T04:41:50.252Z,993.91
2018-01-18T04:43:43.096Z,993.71
2018-01-18T04:44:43.099Z,993.78
2018-01-18T04:46:35.902Z,993.51
2018-01-18T04:47:35.856Z,993.73
2018-01-18T04:49:28.706Z,993.44
2018-01-18T04:50:28.654Z,993.55
2018-01-18T04:52:21.488Z,993.32
2018-01-18T04:53:21.457Z,993.29
2018-01-18T04:55:14.296Z,993.39
2018-01-18T04:56:14.256Z,993.27
2018-01-18T04:58:07.083Z,993.19
2018-01-18T04:59:07.054Z,993.15
2018-01-18T05:00:59.899Z,993.22
2018-01-18T05:01:59.865Z,993.09
2018-01-18T05:03:52.691Z,992.85
2018-01-18T05:04:52.691Z,993.02
2018-01-18T05:06:45.513Z,992.90
2018-01-18T05:07:45.478Z,992.83
2018-01-18T05:09:38.297Z,992.83
2018-01-18T05:10:38.270Z,992.75
2018-01-18T05:12:31.114Z,992.42
2018-01-18T05:13:31.069Z,992.72
2018-01-18T05:15:23.896Z,992.56
2018-01-18T05:16:23.869Z,992.57
2018-01-18T05:18:16.717Z,992.72
2018-01-18T05:19:16.658Z,992.55
2018-01-18T05:21:09.484Z,992.50
2018-01-18T05:22:09.464Z,992.63
2018-01-18T05:24:02.804Z,992.27
2018-01-18T05:25:02.760Z,992.33
2018-01-18T05:26:55.586Z,992.42
2018-01-18T05:27:55.565Z,992.29
2018-01-18T05:29:48.405Z,992.27
2018-01-18T05:30:48.365Z,992.24
2018-01-18T05:32:41.190Z,992.56
2018-01-18T05:33:41.164Z,992.19
2018-01-18T05:35:34.006Z,992.16
2018-01-18T05:36:33.961Z,992.10
2018-01-18T05:38:27.287Z,992.04
2018-01-18T05:39:27.253Z,991.99
2018-01-18T05:41:20.098Z,991.78
2018-01-18T05:42:20.051Z,991.88
2018-01-18T05:44:12.867Z,992.05
2018-01-18T05:45:12.839Z,991.71
2018-01-18T05:47:05.719Z,991.72
2018-01-18T05:48:05.630Z,991.80
2018-01-18T05:49:58.458Z,991.69
2018-01-18T05:50:58.431Z,991.56
2018-01-18T05:52:51.271Z,991.61
2018-01-18T05:53:51.255Z,991.41
2018-01-18T05:55:44.546Z,991.68
2018-01-18T05:56:44.523Z,991.43
2018-01-18T05:58:37.864Z,991.50
2018-01-18T05:59:37.821Z,991.21
2018-01-18T06:01:31.135Z,991.21
2018-01-18T06:02:31.112Z,991.41
2018-01-18T06:04:23.938Z,991.08
2018-01-18T06:05:23.901Z,991.10
2018-01-18T06:07:17.214Z,990.96
2018-01-18T06:08:17.196Z,991.06
2018-01-18T06:10:10.029Z,990.94
2018-01-18T06:11:09.985Z,990.82
2018-01-18T06:13:02.813Z,990.75
2018-01-18T06:14:02.792Z,990.64
2018-01-18T06:15:56.115Z,990.79
2018-01-18T06:16:56.070Z,990.69
2018-01-18T06:18:48.898Z,990.56
2018-01-18T06:19:48.872Z,990.58
2018-01-18T06:21:41.717Z,990.59
2018-01-18T06:22:41.669Z,990.49
2018-01-18T06:24:34.979Z,990.49
2018-01-18T06:25:34.956Z,990.70
2018-01-18T06:27:27.790Z,990.60
2018-01-18T06:28:27.754Z,990.21
2018-01-18T06:30:21.059Z,990.54
2018-01-18T06:31:21.034Z,990.51
2018-01-18T06:33:13.880Z,990.51
2018-01-18T06:34:13.836Z,989.86
2018-01-18T06:36:06.663Z,990.58
2018-01-18T06:37:06.630Z,990.38
2018-01-18T06:38:59.975Z,990.28
2018-01-18T06:39:59.925Z,990.48
2018-01-18T06:41:53.248Z,990.03
2018-01-18T06:42:53.225Z,990.16
2018-01-18T06:44:46.553Z,990.42
2018-01-18T06:45:46.511Z,990.05
2018-01-18T06:47:39.335Z,990.03
2018-01-18T06:48:39.297Z,990.06
2018-01-18T06:50:32.132Z,990.37
2018-01-18T06:51:32.091Z,990.43
2018-01-18T06:53:25.415Z,990.24
2018-01-18T06:54:25.392Z,990.05
2018-01-18T06:56:18.730Z,990.43
2018-01-18T06:57:18.689Z,990.20
2018-01-18T06:59:11.508Z,990.33
2018-01-18T07:00:11.478Z,990.18
2018-01-18T07:02:04.323Z,990.27
2018-01-18T07:03:04.274Z,990.17
2018-01-18T07:04:57.095Z,990.02
2018-01-18T07:05:57.069Z,990.06
2018-01-18T07:07:49.904Z,989.62
2018-01-18T07:08:49.870Z,990.16
2018-01-18T07:10:43.182Z,990.24
2018-01-18T07:11:43.155Z,990.04
2018-01-18T07:13:36.483Z,989.98
2018-01-18T07:14:36.448Z,989.90
2018-01-18T07:16:29.260Z,989.90
2018-01-18T07:17:29.234Z,990.07
2018-01-18T07:19:22.572Z,989.88
2018-01-18T07:20:22.531Z,989.89
2018-01-18T07:22:15.351Z,989.66
2018-01-18T07:23:15.325Z,990.03
2018-01-18T07:25:08.164Z,989.69
2018-01-18T07:26:08.125Z,989.65
2018-01-18T07:28:00.946Z,989.70
2018-01-18T07:29:00.921Z,989.66
2018-01-18T07:30:53.758Z,991.09
2018-01-18T07:31:53.721Z,989.78
2018-01-18T07:33:46.547Z,989.79
2018-01-18T07:34:46.517Z,989.87
2018-01-18T07:36:39.353Z,989.83
2018-01-18T07:37:39.309Z,989.80
2018-01-18T07:39:32.620Z,989.67
2018-01-18T07:40:32.599Z,989.71
2018-01-18T07:42:25.438Z,989.82
2018-01-18T07:43:25.402Z,990.17
2018-01-18T07:45:18.220Z,989.75
2018-01-18T07:46:18.187Z,989.62
2018-01-18T07:48:11.032Z,989.60
2018-01-18T07:49:10.993Z,989.85
2018-01-18T07:51:03.823Z,989.67
2018-01-18T07:52:03.795Z,989.69
2018-01-18T07:53:56.638Z,989.67
2018-01-18T07:54:56.589Z,989.91
2018-01-18T07:56:49.417Z,989.71
2018-01-18T07:57:49.380Z,990.47
2018-01-18T07:59:42.225Z,989.61
2018-01-18T08:00:42.184Z,990.45
2018-01-18T08:02:35.018Z,989.44
2018-01-18T08:03:34.987Z,989.40
2018-01-18T08:05:27.825Z,989.25
2018-01-18T08:06:27.782Z,989.49
2018-01-18T08:08:20.610Z,989.44
2018-01-18T08:09:20.584Z,989.72
2018-01-18T08:11:13.429Z,989.49
2018-01-18T08:12:13.384Z,989.34
2018-01-18T08:14:06.213Z,989.55
2018-01-18T08:15:06.181Z,989.40
2018-01-18T08:16:59.030Z,989.40
2018-01-18T08:17:58.988Z,989.37
2018-01-18T08:19:51.909Z,989.46
2018-01-18T08:20:51.793Z,989.41
2018-01-18T08:22:44.781Z,989.73
2018-01-18T08:23:44.601Z,989.25
2018-01-18T08:25:37.419Z,989.24
2018-01-18T08:26:37.402Z,989.22
2018-01-18T08:28:30.239Z,989.01
2018-01-18T08:29:30.190Z,988.90
2018-01-18T08:31:23.024Z,988.84
2018-01-18T08:32:22.994Z,988.95
2018-01-18T08:34:15.828Z,988.94
2018-01-18T08:35:15.783Z,988.91
2018-01-18T08:37:08.709Z,988.82
2018-01-18T08:38:08.579Z,988.85
2018-01-18T08:40:02.416Z,989.00
2018-01-18T08:41:02.384Z,988.96
2018-01-18T08:42:55.197Z,988.73
2018-01-18T08:43:55.175Z,988.88
2018-01-18T08:45:48.006Z,989.23
2018-01-18T08:46:47.971Z,988.70
2018-01-18T08:48:41.167Z,988.88
2018-01-18T08:49:40.768Z,988.89
2018-01-18T08:51:33.598Z,988.64
2018-01-18T08:52:33.561Z,988.71
2018-01-18T08:54:26.386Z,988.71
2018-01-18T08:55:26.360Z,988.69
2018-01-18T08:57:19.197Z,989.55
2018-01-18T08:58:19.162Z,988.53
2018-01-18T09:00:11.995Z,988.49
2018-01-18T09:01:11.966Z,988.48
2018-01-18T09:03:04.810Z,988.46
2018-01-18T09:04:04.768Z,988.95
2018-01-18T09:05:57.596Z,988.43
2018-01-18T09:06:57.571Z,988.51
2018-01-18T09:08:50.413Z,988.95
2018-01-18T09:09:50.374Z,988.96
2018-01-18T09:11:43.199Z,988.37
2018-01-18T09:12:43.177Z,988.44
2018-01-18T09:14:36.015Z,988.73
2018-01-18T09:15:35.976Z,988.76
2018-01-18T09:17:28.805Z,988.75
2018-01-18T09:18:28.770Z,988.56
2018-01-18T09:20:21.621Z,988.34
2018-01-18T09:21:21.584Z,988.22
2018-01-18T09:23:14.414Z,988.57
2018-01-18T09:24:14.421Z,988.33
2018-01-18T09:26:07.235Z,988.28
2018-01-18T09:27:07.190Z,988.31
2018-01-18T09:29:00.513Z,988.36
2018-01-18T09:30:00.484Z,988.21
2018-01-18T09:31:53.329Z,988.39
2018-01-18T09:32:53.290Z,988.32
2018-01-18T09:34:46.115Z,988.35
2018-01-18T09:35:46.092Z,988.25
2018-01-18T09:37:38.927Z,988.27
2018-01-18T09:38:38.888Z,988.19
2018-01-18T09:40:32.208Z,988.74
2018-01-18T09:41:32.179Z,988.30
2018-01-18T09:43:25.020Z,988.27
2018-01-18T09:44:24.981Z,988.97
2018-01-18T09:46:17.807Z,988.84
2018-01-18T09:47:17.784Z,988.10
2018-01-18T09:49:11.123Z,988.25
2018-01-18T09:50:11.074Z,988.29
2018-01-18T09:52:03.900Z,988.33
2018-01-18T09:53:03.871Z,987.84
2018-01-18T09:54:56.724Z,989.77
2018-01-18T09:55:56.668Z,988.04
2018-01-18T09:57:49.500Z,988.30
2018-01-18T09:58:49.473Z,988.74
2018-01-18T10:00:42.318Z,988.19
2018-01-18T10:01:42.271Z,988.24
2018-01-18T10:03:35.103Z,988.45
2018-01-18T10:04:35.077Z,988.32
2018-01-18T10:06:27.920Z,988.21
2018-01-18T10:07:27.881Z,988.31
2018-01-18T10:09:20.702Z,988.29
2018-01-18T10:10:20.678Z,989.06
2018-01-18T10:12:13.547Z,988.61
2018-01-18T10:13:13.483Z,988.44
2018-01-18T10:15:06.298Z,988.85
2018-01-18T10:16:06.278Z,988.39
2018-01-18T10:17:59.120Z,988.36
2018-01-18T10:18:59.077Z,988.33
2018-01-18T10:20:51.901Z,988.37
2018-01-18T10:21:51.875Z,988.17
2018-01-18T10:23:44.720Z,988.07
2018-01-18T10:24:44.676Z,987.93
2018-01-18T10:26:38.037Z,988.05
2018-01-18T10:27:37.973Z,988.07
2018-01-18T10:29:30.816Z,988.09
2018-01-18T10:30:30.773Z,988.50
2018-01-18T10:32:23.606Z,988.08
2018-01-18T10:33:23.579Z,988.42
2018-01-18T10:35:16.415Z,988.18
2018-01-18T10:36:16.372Z,988.37
2018-01-18T10:38:09.201Z,988.49
2018-01-18T10:39:09.174Z,988.32
2018-01-18T10:41:02.015Z,988.51
2018-01-18T10:42:01.975Z,988.21
2018-01-18T10:43:54.806Z,988.04
2018-01-18T10:44:54.779Z,987.94
2018-01-18T10:46:47.677Z,987.88
2018-01-18T10:47:47.582Z,987.89
2018-01-18T10:49:40.409Z,989.11
2018-01-18T10:50:40.388Z,988.06
2018-01-18T10:52:33.718Z,988.07
2018-01-18T10:53:33.677Z,988.48
2018-01-18T10:55:26.500Z,987.85
2018-01-18T10:56:26.507Z,987.97
2018-01-18T10:58:19.328Z,988.25
2018-01-18T10:59:19.281Z,988.05
2018-01-18T11:01:12.112Z,988.59
2018-01-18T11:02:12.084Z,987.67
2018-01-18T11:04:04.926Z,987.79
2018-01-18T11:05:04.886Z,988.07
2018-01-18T11:06:57.715Z,987.94
2018-01-18T11:07:57.686Z,988.35
2018-01-18T11:09:50.527Z,987.81
2018-01-18T11:10:50.487Z,988.22
2018-01-18T11:12:43.313Z,988.03
2018-01-18T11:13:43.290Z,987.73
2018-01-18T11:15:36.126Z,987.80
2018-01-18T11:16:36.087Z,987.62
2018-01-18T11:18:28.928Z,988.12
2018-01-18T11:19:28.894Z,988.14
2018-01-18T11:21:21.738Z,988.23
2018-01-18T11:22:21.696Z,987.77
2018-01-18T11:24:14.528Z,987.68
2018-01-18T11:25:14.498Z,987.71
2018-01-18T11:27:08.337Z,987.75
2018-01-18T11:28:08.292Z,987.61
2018-01-18T11:30:01.121Z,987.73
2018-01-18T11:31:01.094Z,988.02
2018-01-18T11:32:53.933Z,987.76
2018-01-18T11:33:53.898Z,987.52
2018-01-18T11:35:46.721Z,988.48
2018-01-18T11:36:46.700Z,988.33
2018-01-18T11:38:40.041Z,988.71
2018-01-18T11:39:40.004Z,987.80
2018-01-18T11:41:32.840Z,988.10
2018-01-18T11:42:32.810Z,988.21
2018-01-18T11:44:25.664Z,987.90
2018-01-18T11:45:25.611Z,987.96
2018-01-18T11:47:18.444Z,987.85
2018-01-18T11:48:18.420Z,987.95
2018-01-18T11:50:11.261Z,987.89
2018-01-18T11:51:11.222Z,987.96
2018-01-18T11:53:04.051Z,988.56
2018-01-18T11:54:04.026Z,987.98
2018-01-18T11:55:56.874Z,988.12
2018-01-18T11:56:56.832Z,988.16
2018-01-18T11:58:49.665Z,988.43
2018-01-18T11:59:49.630Z,988.28
2018-01-18T12:01:42.475Z,988.26
2018-01-18T12:02:42.432Z,988.23
2018-01-18T12:04:35.264Z,988.99
2018-01-18T12:05:35.239Z,989.02
2018-01-18T12:07:28.088Z,988.50
2018-01-18T12:08:28.049Z,988.25
2018-01-18T12:10:20.891Z,988.63
2018-01-18T12:11:20.861Z,988.52
2018-01-18T12:13:14.224Z,988.46
2018-01-18T12:14:14.171Z,988.48
2018-01-18T12:16:07.508Z,988.31
2018-01-18T12:17:07.480Z,988.14
2018-01-18T12:19:00.326Z,987.93
2018-01-18T12:20:00.285Z,988.06
2018-01-18T12:21:53.112Z,987.86
2018-01-18T12:22:53.085Z,987.91
2018-01-18T12:24:45.930Z,988.31
2018-01-18T12:25:45.945Z,987.81
2018-01-18T12:27:38.721Z,987.96
2018-01-18T12:28:38.695Z,987.67
2018-01-18T12:30:32.028Z,988.01
2018-01-18T12:31:31.991Z,987.98
2018-01-18T12:33:24.820Z,987.60
2018-01-18T12:34:24.797Z,987.98
2018-01-18T12:36:17.634Z,987.67
2018-01-18T12:37:17.601Z,987.63
2018-01-18T12:39:10.429Z,988.14
2018-01-18T12:40:10.404Z,987.96
2018-01-18T12:42:03.737Z,988.10
2018-01-18T12:43:03.698Z,987.76
2018-01-18T12:44:56.524Z,987.99
2018-01-18T12:45:56.500Z,988.02
2018-01-18T12:47:49.339Z,987.94
2018-01-18T12:48:49.297Z,988.62
2018-01-18T12:50:42.128Z,988.01
2018-01-18T12:51:42.101Z,988.03
2018-01-18T12:53:35.439Z,987.97
2018-01-18T12:54:35.401Z,988.04
2018-01-18T12:56:28.227Z,988.36
2018-01-18T12:57:28.200Z,987.96
2018-01-18T12:59:21.042Z,987.72
2018-01-18T13:00:21.012Z,988.12
2018-01-18T13:02:14.330Z,988.19
2018-01-18T13:03:14.306Z,987.98
2018-01-18T13:05:07.632Z,988.24
2018-01-18T13:06:07.592Z,987.81
2018-01-18T13:08:00.908Z,988.20
2018-01-18T13:09:00.886Z,988.10
2018-01-18T13:10:53.731Z,988.24
2018-01-18T13:11:53.691Z,987.99
2018-01-18T13:13:47.013Z,988.08
2018-01-18T13:14:46.981Z,988.09
2018-01-18T13:16:39.840Z,988.22
2018-01-18T13:17:39.789Z,988.47
2018-01-18T13:19:32.621Z,988.36
2018-01-18T13:20:32.596Z,988.35
2018-01-18T13:22:25.936Z,988.27
2018-01-18T13:23:25.887Z,988.51
2018-01-18T13:25:18.714Z,988.45
2018-01-18T13:26:18.681Z,988.62
2018-01-18T13:28:11.526Z,988.27
2018-01-18T13:29:11.489Z,988.45
2018-01-18T13:31:04.316Z,988.42
2018-01-18T13:32:04.290Z,988.50
2018-01-18T13:33:57.135Z,988.70
2018-01-18T13:34:57.100Z,988.77
2018-01-18T13:36:49.922Z,989.03
2018-01-18T13:37:49.897Z,989.11
2018-01-18T13:39:42.744Z,989.23
2018-01-18T13:40:42.708Z,989.03
2018-01-18T13:42:35.536Z,989.13
2018-01-18T13:43:35.510Z,989.16
2018-01-18T13:45:28.359Z,988.94
2018-01-18T13:46:28.315Z,988.96
2018-01-18T13:48:21.152Z,988.89
2018-01-18T13:49:21.122Z,988.92
2018-01-18T13:51:13.968Z,989.13
2018-01-18T13:52:13.927Z,988.98
2018-01-18T13:54:06.756Z,988.58
2018-01-18T13:55:06.770Z,988.46
2018-01-18T13:56:59.570Z,988.49
2018-01-18T13:57:59.538Z,988.61
2018-01-18T13:59:52.360Z,988.50
2018-01-18T14:00:52.340Z,988.60
2018-01-18T14:02:45.184Z,988.90
2018-01-18T14:03:45.139Z,988.65
2018-01-18T14:05:37.967Z,988.79
2018-01-18T14:06:37.942Z,988.89
2018-01-18T14:08:30.793Z,988.94
2018-01-18T14:09:30.748Z,988.94
2018-01-18T14:11:23.588Z,989.21
2018-01-18T14:12:23.564Z,988.96
2018-01-18T14:14:16.407Z,988.94
2018-01-18T14:15:16.359Z,989.06
2018-01-18T14:17:09.192Z,989.18
2018-01-18T14:18:09.170Z,989.12
2018-01-18T14:20:02.016Z,988.98
2018-01-18T14:21:01.977Z,988.89
2018-01-18T14:22:54.803Z,988.99
2018-01-18T14:23:54.777Z,988.99
2018-01-18T14:25:47.619Z,988.89
2018-01-18T14:26:47.577Z,988.97
2018-01-18T14:28:40.419Z,989.06
2018-01-18T14:29:40.388Z,989.04
2018-01-18T14:31:33.233Z,989.14
2018-01-18T14:32:33.195Z,989.21
2018-01-18T14:34:26.022Z,989.29
2018-01-18T14:35:26.001Z,989.29
2018-01-18T14:37:18.844Z,989.09
2018-01-18T14:38:18.800Z,989.25
2018-01-18T14:40:11.628Z,989.37
2018-01-18T14:41:11.601Z,989.48
2018-01-18T14:43:04.458Z,989.54
2018-01-18T14:44:04.414Z,989.37
2018-01-18T14:45:57.252Z,989.76
2018-01-18T14:46:57.240Z,989.90
2018-01-18T14:48:50.064Z,989.62
2018-01-18T14:49:50.067Z,989.68
2018-01-18T14:51:42.854Z,989.70
2018-01-18T14:52:42.833Z,989.61
2018-01-18T14:54:35.676Z,989.66
2018-01-18T14:55:35.631Z,989.64
2018-01-18T14:57:28.456Z,989.57
2018-01-18T14:58:28.435Z,989.63
2018-01-18T15:00:22.283Z,989.57
2018-01-18T15:01:22.245Z,989.59
2018-01-18T15:03:15.078Z,989.56
2018-01-18T15:04:15.048Z,989.67
2018-01-18T15:06:07.887Z,989.77
2018-01-18T15:07:07.848Z,989.72
2018-01-18T15:09:00.680Z,989.41
2018-01-18T15:10:00.655Z,989.41
2018-01-18T15:11:53.518Z,989.67
2018-01-18T15:12:53.456Z,989.35
2018-01-18T15:14:46.285Z,989.52
2018-01-18T15:15:46.256Z,989.38
2018-01-18T15:17:39.099Z,989.51
2018-01-18T15:18:39.075Z,989.48
2018-01-18T15:20:31.892Z,989.22
2018-01-18T15:21:31.868Z,989.13
2018-01-18T15:23:24.710Z,989.10
2018-01-18T15:24:24.673Z,989.30
2018-01-18T15:26:17.499Z,989.37
2018-01-18T15:27:17.476Z,989.27
2018-01-18T15:29:10.330Z,989.28
2018-01-18T15:30:10.287Z,989.10
2018-01-18T15:32:03.128Z,989.15
2018-01-18T15:33:03.101Z,989.16
2018-01-18T15:34:55.950Z,989.36
2018-01-18T15:35:55.908Z,989.42
2018-01-18T15:37:48.734Z,989.64
2018-01-18T15:38:48.710Z,989.60
2018-01-18T15:40:41.567Z,989.45
2018-01-18T15:41:41.519Z,989.42
2018-01-18T15:43:34.848Z,989.63
2018-01-18T15:44:34.827Z,989.64
2018-01-18T15:46:27.671Z,989.73
2018-01-18T15:47:27.635Z,989.77
2018-01-18T15:49:20.961Z,989.63
2018-01-18T15:50:20.938Z,989.61
2018-01-18T15:52:14.275Z,989.77
2018-01-18T15:53:14.229Z,989.55
2018-01-18T15:55:07.566Z,989.62
2018-01-18T15:56:07.539Z,989.65
2018-01-18T15:58:00.388Z,989.73
2018-01-18T15:59:00.350Z,989.72
2018-01-18T16:00:53.183Z,989.73
2018-01-18T16:01:53.155Z,989.82
2018-01-18T16:03:46.174Z,989.82
2018-01-18T16:04:45.958Z,989.86
2018-01-18T16:06:38.783Z,989.76
2018-01-18T16:07:38.759Z,989.84
2018-01-18T16:09:31.598Z,990.06
2018-01-18T16:10:31.560Z,989.95
2018-01-18T16:12:24.391Z,990.01
2018-01-18T16:13:24.371Z,990.00
2018-01-18T16:15:17.210Z,989.96
2018-01-18T16:16:17.169Z,989.98
2018-01-18T16:18:10.004Z,990.13
2018-01-18T16:19:09.977Z,990.07
2018-01-18T16:21:03.330Z,990.13
2018-01-18T16:22:03.288Z,990.26
2018-01-18T16:23:56.109Z,990.19
2018-01-18T16:24:56.088Z,990.20
2018-01-18T16:26:48.943Z,990.16
2018-01-18T16:27:48.894Z,990.28
2018-01-18T16:29:41.722Z,990.24
2018-01-18T16:30:41.697Z,990.29
2018-01-18T16:32:35.054Z,990.16
2018-01-18T16:33:35.016Z,990.32
2018-01-18T16:35:27.838Z,990.22
2018-01-18T16:36:27.812Z,990.20
2018-01-18T16:38:20.663Z,990.23
2018-01-18T16:39:20.620Z,990.28
2018-01-18T16:41:14.011Z,990.18
2018-01-18T16:42:13.949Z,990.16
2018-01-18T16:44:06.782Z,990.25
2018-01-18T16:45:06.748Z,990.16
2018-01-18T16:46:59.572Z,990.16
2018-01-18T16:47:59.565Z,990.09
2018-01-18T16:49:52.397Z,990.10
2018-01-18T16:50:52.360Z,990.11
2018-01-18T16:52:45.196Z,990.20
2018-01-18T16:53:45.168Z,990.21
2018-01-18T16:55:38.503Z,990.31
2018-01-18T16:56:38.456Z,990.24
2018-01-18T16:58:31.290Z,990.33
2018-01-18T16:59:31.262Z,990.42
2018-01-18T17:01:24.108Z,990.50
2018-01-18T17:02:24.078Z,990.53
2018-01-18T17:04:16.900Z,990.62
2018-01-18T17:05:16.874Z,990.47
2018-01-18T17:07:09.713Z,990.43
2018-01-18T17:08:09.674Z,990.45
2018-01-18T17:10:02.502Z,990.29
2018-01-18T17:11:02.480Z,990.49
2018-01-18T17:12:55.329Z,990.33
2018-01-18T17:13:55.283Z,990.33
2018-01-18T17:15:48.120Z,990.39
2018-01-18T17:16:48.092Z,990.35
2018-01-18T17:18:40.932Z,990.43
2018-01-18T17:19:40.892Z,990.42
2018-01-18T17:21:33.728Z,990.53
2018-01-18T17:22:33.701Z,990.64
2018-01-18T17:24:26.546Z,990.75
2018-01-18T17:25:26.510Z,990.58
2018-01-18T17:27:19.341Z,990.26
2018-01-18T17:28:19.305Z,990.32
2018-01-18T17:30:12.150Z,990.41
2018-01-18T17:31:12.115Z,990.48
2018-01-18T17:33:04.941Z,990.52
2018-01-18T17:34:04.914Z,990.35
2018-01-18T17:35:57.755Z,990.28
2018-01-18T17:36:57.716Z,990.40
2018-01-18T17:38:51.081Z,991.05
2018-01-18T17:39:51.049Z,991.17
2018-01-18T17:41:43.898Z,991.52
2018-01-18T17:42:43.851Z,991.30
2018-01-18T17:44:36.678Z,991.43
2018-01-18T17:45:36.651Z,991.61
2018-01-18T17:47:29.987Z,991.50
2018-01-18T17:48:29.952Z,991.50
2018-01-18T17:50:22.786Z,991.28
2018-01-18T17:51:22.763Z,991.07
2018-01-18T17:53:16.105Z,990.94
2018-01-18T17:54:16.056Z,990.89
2018-01-18T17:56:08.878Z,990.93
2018-01-18T17:57:08.860Z,990.90
2018-01-18T17:59:02.196Z,990.85